ANZ07D YSSY-NZAA
Flight info
| Callsign | ANZ07D |
|---|---|
| Flight time | 2h 26m |
| Altitude | 35000 |
| Route | EVONN L521 LUNBI |
| Aircraft | A320/M-SDE3FGHIRWY/LB1 |
Departure
| Time | 2026-05-07 19:15 |
|---|---|
| Airport | Sydney Kingsford Smith International Airport (YSSY) |
Arrival
| Time | 2026-05-07 21:42 |
|---|---|
| Airport | Auckland International Airport (NZAA) |
| Time | Latitude | Longitude | Altitude | Speed | Heading |
|---|---|---|---|---|---|
| 2026-05-07 19:10 | -33.93539 | 151.18952 | 30 ft | 0 kts | 165° |
| 2026-05-07 19:13 | -33.93559 | 151.18954 | 30 ft | 13 kts | 178° |
| 2026-05-07 19:13 | -33.93679 | 151.18958 | 27 ft | 20 kts | 169° |
| 2026-05-07 19:13 | -33.93770 | 151.18883 | 25 ft | 11 kts | 261° |
| 2026-05-07 19:13 | -33.93779 | 151.18856 | 25 ft | 0 kts | 249° |
| 2026-05-07 19:14 | -33.93780 | 151.18851 | 25 ft | 4 kts | 249° |
| 2026-05-07 19:15 | -33.93856 | 151.18547 | 29 ft | 72 kts | 255° |
| 2026-05-07 19:15 | -33.94050 | 151.17736 | 29 ft | 127 kts | 254° |
| 2026-05-07 19:15 | -33.94320 | 151.16610 | 378 ft | 136 kts | 259° |
| 2026-05-07 19:15 | -33.94578 | 151.15507 | 892 ft | 138 kts | 256° |
| 2026-05-07 19:16 | -33.94829 | 151.14409 | 1504 ft | 134 kts | 253° |
| 2026-05-07 19:16 | -33.95241 | 151.13349 | 1791 ft | 151 kts | 228° |
| 2026-05-07 19:16 | -33.96226 | 151.12668 | 1969 ft | 182 kts | 198° |
| 2026-05-07 19:16 | -33.97593 | 151.12829 | 2180 ft | 222 kts | 159° |
| 2026-05-07 19:17 | -33.98775 | 151.14229 | 2513 ft | 260 kts | 124° |
| 2026-05-07 19:17 | -33.99488 | 151.16262 | 3242 ft | 270 kts | 111° |
| 2026-05-07 19:17 | -33.99982 | 151.18453 | 4167 ft | 271 kts | 108° |
| 2026-05-07 19:17 | -34.00407 | 151.20669 | 5062 ft | 272 kts | 108° |
| 2026-05-07 19:18 | -34.00836 | 151.22898 | 5882 ft | 274 kts | 109° |
| 2026-05-07 19:18 | -34.01297 | 151.25150 | 6657 ft | 278 kts | 110° |
| 2026-05-07 19:18 | -34.01792 | 151.27422 | 7359 ft | 283 kts | 111° |
| 2026-05-07 19:18 | -34.02318 | 151.29728 | 8044 ft | 288 kts | 112° |
| 2026-05-07 19:19 | -34.02868 | 151.32075 | 8711 ft | 294 kts | 112° |
| 2026-05-07 19:19 | -34.03433 | 151.34467 | 9394 ft | 299 kts | 112° |
| 2026-05-07 19:19 | -34.04012 | 151.36900 | 10063 ft | 304 kts | 113° |
| 2026-05-07 19:19 | -34.04615 | 151.39406 | 10419 ft | 321 kts | 113° |
| 2026-05-07 19:20 | -34.05263 | 151.42079 | 10559 ft | 343 kts | 112° |
| 2026-05-07 19:20 | -34.05931 | 151.44861 | 10921 ft | 355 kts | 112° |
| 2026-05-07 19:20 | -34.06613 | 151.47746 | 11463 ft | 360 kts | 112° |
| 2026-05-07 19:20 | -34.07300 | 151.50675 | 12048 ft | 365 kts | 112° |
| 2026-05-07 19:21 | -34.07993 | 151.53642 | 12621 ft | 370 kts | 112° |
| 2026-05-07 19:21 | -34.08695 | 151.56647 | 13190 ft | 374 kts | 112° |
| 2026-05-07 19:21 | -34.09410 | 151.59696 | 13777 ft | 379 kts | 113° |
| 2026-05-07 19:21 | -34.10135 | 151.62774 | 14284 ft | 384 kts | 113° |
| 2026-05-07 19:22 | -34.10872 | 151.65902 | 14816 ft | 388 kts | 113° |
| 2026-05-07 19:22 | -34.11604 | 151.69014 | 15316 ft | 392 kts | 113° |
| 2026-05-07 19:22 | -34.12349 | 151.72199 | 15825 ft | 395 kts | 113° |
| 2026-05-07 19:22 | -34.13098 | 151.75404 | 16332 ft | 398 kts | 113° |
| 2026-05-07 19:23 | -34.13851 | 151.78637 | 16849 ft | 402 kts | 113° |
| 2026-05-07 19:23 | -34.14611 | 151.81898 | 17358 ft | 405 kts | 113° |
| 2026-05-07 19:23 | -34.15374 | 151.85190 | 17873 ft | 409 kts | 113° |
| 2026-05-07 19:23 | -34.16147 | 151.88517 | 18391 ft | 412 kts | 113° |
| 2026-05-07 19:24 | -34.16925 | 151.91866 | 18848 ft | 416 kts | 113° |
| 2026-05-07 19:24 | -34.17708 | 151.95246 | 19313 ft | 420 kts | 113° |
| 2026-05-07 19:24 | -34.18498 | 151.98663 | 19759 ft | 424 kts | 113° |
| 2026-05-07 19:24 | -34.19287 | 152.02080 | 20223 ft | 428 kts | 113° |
| 2026-05-07 19:25 | -34.20124 | 152.05539 | 20683 ft | 430 kts | 115° |
| 2026-05-07 19:25 | -34.21067 | 152.08972 | 21130 ft | 431 kts | 117° |
| 2026-05-07 19:25 | -34.22088 | 152.12398 | 21572 ft | 434 kts | 118° |
| 2026-05-07 19:25 | -34.23143 | 152.15826 | 22008 ft | 437 kts | 118° |
| 2026-05-07 19:26 | -34.24206 | 152.19281 | 22428 ft | 440 kts | 118° |
| 2026-05-07 19:26 | -34.25263 | 152.22774 | 22862 ft | 444 kts | 118° |
| 2026-05-07 19:26 | -34.26310 | 152.26305 | 23284 ft | 448 kts | 117° |
| 2026-05-07 19:26 | -34.27337 | 152.29823 | 23675 ft | 452 kts | 117° |
| 2026-05-07 19:27 | -34.28376 | 152.33431 | 24010 ft | 456 kts | 116° |
| 2026-05-07 19:27 | -34.29418 | 152.37076 | 24309 ft | 460 kts | 116° |
| 2026-05-07 19:27 | -34.30466 | 152.40745 | 24608 ft | 463 kts | 116° |
| 2026-05-07 19:27 | -34.31524 | 152.44444 | 24900 ft | 467 kts | 116° |
| 2026-05-07 19:28 | -34.32597 | 152.48180 | 25182 ft | 471 kts | 116° |
| 2026-05-07 19:28 | -34.33673 | 152.51929 | 25486 ft | 475 kts | 116° |
| 2026-05-07 19:28 | -34.34761 | 152.55719 | 25773 ft | 479 kts | 116° |
| 2026-05-07 19:28 | -34.35863 | 152.59556 | 26042 ft | 484 kts | 116° |
| 2026-05-07 19:29 | -34.36971 | 152.63417 | 26306 ft | 487 kts | 116° |
| 2026-05-07 19:29 | -34.38084 | 152.67307 | 26570 ft | 491 kts | 115° |
| 2026-05-07 19:29 | -34.39204 | 152.71228 | 26836 ft | 495 kts | 115° |
| 2026-05-07 19:29 | -34.40331 | 152.75177 | 27104 ft | 498 kts | 115° |
| 2026-05-07 19:30 | -34.41464 | 152.79155 | 27361 ft | 501 kts | 115° |
| 2026-05-07 19:30 | -34.42603 | 152.83163 | 27643 ft | 505 kts | 115° |
| 2026-05-07 19:30 | -34.43734 | 152.87151 | 27863 ft | 509 kts | 114° |
| 2026-05-07 19:30 | -34.44888 | 152.91225 | 28109 ft | 513 kts | 114° |
| 2026-05-07 19:31 | -34.46050 | 152.95327 | 28367 ft | 516 kts | 114° |
| 2026-05-07 19:31 | -34.47219 | 152.99456 | 28624 ft | 520 kts | 114° |
| 2026-05-07 19:31 | -34.48393 | 153.03614 | 28893 ft | 522 kts | 114° |
| 2026-05-07 19:31 | -34.49568 | 153.07782 | 29261 ft | 523 kts | 114° |
| 2026-05-07 19:32 | -34.50745 | 153.11970 | 29620 ft | 524 kts | 113° |
| 2026-05-07 19:32 | -34.51919 | 153.16154 | 29952 ft | 527 kts | 113° |
| 2026-05-07 19:32 | -34.53100 | 153.20378 | 30237 ft | 528 kts | 113° |
| 2026-05-07 19:32 | -34.54282 | 153.24600 | 30561 ft | 529 kts | 113° |
| 2026-05-07 19:33 | -34.55463 | 153.28821 | 30903 ft | 528 kts | 113° |
| 2026-05-07 19:33 | -34.56643 | 153.33039 | 31260 ft | 528 kts | 113° |
| 2026-05-07 19:33 | -34.57822 | 153.37252 | 31622 ft | 527 kts | 112° |
| 2026-05-07 19:33 | -34.58999 | 153.41461 | 31993 ft | 526 kts | 112° |
| 2026-05-07 19:34 | -34.60170 | 153.45669 | 32369 ft | 526 kts | 112° |
| 2026-05-07 19:34 | -34.61339 | 153.49882 | 32689 ft | 527 kts | 112° |
| 2026-05-07 19:34 | -34.62504 | 153.54097 | 33040 ft | 526 kts | 112° |
| 2026-05-07 19:34 | -34.63670 | 153.58319 | 33411 ft | 526 kts | 112° |
| 2026-05-07 19:35 | -34.64831 | 153.62516 | 33749 ft | 525 kts | 112° |
| 2026-05-07 19:35 | -34.65980 | 153.66673 | 34063 ft | 525 kts | 112° |
| 2026-05-07 19:35 | -34.67137 | 153.70874 | 34343 ft | 524 kts | 112° |
| 2026-05-07 19:35 | -34.68293 | 153.75079 | 34621 ft | 523 kts | 112° |
| 2026-05-07 19:36 | -34.69446 | 153.79266 | 34881 ft | 523 kts | 112° |
| 2026-05-07 19:36 | -34.70599 | 153.83457 | 34969 ft | 524 kts | 112° |
| 2026-05-07 19:36 | -34.72926 | 153.91946 | 34977 ft | 531 kts | 111° |
| 2026-05-07 19:37 | -34.75236 | 154.00424 | 34971 ft | 532 kts | 111° |
| 2026-05-07 19:37 | -34.77558 | 154.08984 | 34968 ft | 532 kts | 111° |
| 2026-05-07 19:38 | -34.79880 | 154.17546 | 34972 ft | 532 kts | 111° |
| 2026-05-07 19:38 | -34.82194 | 154.26096 | 34966 ft | 533 kts | 111° |
| 2026-05-07 19:39 | -34.84506 | 154.34673 | 34968 ft | 533 kts | 111° |
| 2026-05-07 19:39 | -34.86413 | 154.41798 | 34976 ft | 533 kts | 111° |
| 2026-05-07 19:40 | -34.88717 | 154.50402 | 34968 ft | 533 kts | 111° |
| 2026-05-07 19:40 | -34.91018 | 154.59006 | 34970 ft | 534 kts | 111° |
| 2026-05-07 19:41 | -34.93310 | 154.67610 | 34984 ft | 534 kts | 110° |
| 2026-05-07 19:41 | -34.95574 | 154.76177 | 34968 ft | 534 kts | 110° |
| 2026-05-07 19:42 | -34.97860 | 154.84793 | 34965 ft | 534 kts | 110° |
| 2026-05-07 19:42 | -35.00142 | 154.93416 | 34952 ft | 534 kts | 110° |
| 2026-05-07 19:43 | -35.02411 | 155.02059 | 34928 ft | 539 kts | 110° |
| 2026-05-07 19:43 | -35.04717 | 155.10874 | 34931 ft | 551 kts | 110° |
| 2026-05-07 19:44 | -35.07058 | 155.19867 | 34932 ft | 560 kts | 110° |
| 2026-05-07 19:44 | -35.09410 | 155.28897 | 34919 ft | 563 kts | 110° |
| 2026-05-07 19:45 | -35.11767 | 155.38016 | 34917 ft | 563 kts | 110° |
| 2026-05-07 19:45 | -35.14122 | 155.47153 | 34918 ft | 563 kts | 110° |
| 2026-05-07 19:46 | -35.16474 | 155.56286 | 34914 ft | 564 kts | 110° |
| 2026-05-07 19:46 | -35.18827 | 155.65454 | 34934 ft | 564 kts | 109° |
| 2026-05-07 19:47 | -35.21154 | 155.74536 | 34920 ft | 564 kts | 109° |
| 2026-05-07 19:47 | -35.23498 | 155.83706 | 34917 ft | 564 kts | 109° |
| 2026-05-07 19:48 | -35.25815 | 155.92878 | 34910 ft | 564 kts | 109° |
| 2026-05-07 19:48 | -35.28126 | 156.02057 | 34901 ft | 564 kts | 109° |
| 2026-05-07 19:49 | -35.30438 | 156.11236 | 34903 ft | 564 kts | 109° |
| 2026-05-07 19:49 | -35.32749 | 156.20417 | 34898 ft | 564 kts | 109° |
| 2026-05-07 19:50 | -35.35050 | 156.29592 | 34911 ft | 564 kts | 108° |
| 2026-05-07 19:50 | -35.37338 | 156.38795 | 34897 ft | 564 kts | 108° |
| 2026-05-07 19:51 | -35.39618 | 156.47990 | 34892 ft | 564 kts | 108° |
| 2026-05-07 19:51 | -35.41881 | 156.57126 | 34881 ft | 564 kts | 108° |
| 2026-05-07 19:52 | -35.44154 | 156.66337 | 34879 ft | 564 kts | 108° |
| 2026-05-07 19:52 | -35.46418 | 156.75538 | 34878 ft | 563 kts | 108° |
| 2026-05-07 19:53 | -35.48676 | 156.84744 | 34875 ft | 563 kts | 108° |
| 2026-05-07 19:53 | -35.50921 | 156.93955 | 34870 ft | 563 kts | 108° |
| 2026-05-07 19:54 | -35.53159 | 157.03168 | 34863 ft | 563 kts | 108° |
| 2026-05-07 19:54 | -35.55392 | 157.12385 | 34860 ft | 563 kts | 108° |
| 2026-05-07 19:55 | -35.57616 | 157.21609 | 34853 ft | 563 kts | 108° |
| 2026-05-07 19:55 | -35.59814 | 157.30788 | 34851 ft | 563 kts | 108° |
| 2026-05-07 19:56 | -35.62022 | 157.40023 | 34843 ft | 563 kts | 108° |
| 2026-05-07 19:56 | -35.64227 | 157.49263 | 34834 ft | 563 kts | 107° |
| 2026-05-07 19:57 | -35.66426 | 157.58519 | 34828 ft | 563 kts | 108° |
| 2026-05-07 19:57 | -35.68621 | 157.67763 | 34821 ft | 563 kts | 107° |
| 2026-05-07 19:58 | -35.70800 | 157.77015 | 34818 ft | 563 kts | 107° |
| 2026-05-07 19:58 | -35.72969 | 157.86274 | 34808 ft | 563 kts | 107° |
| 2026-05-07 19:59 | -35.75138 | 157.95530 | 34810 ft | 562 kts | 107° |
| 2026-05-07 19:59 | -35.77298 | 158.04787 | 34810 ft | 562 kts | 107° |
| 2026-05-07 20:00 | -35.79282 | 158.14035 | 34800 ft | 562 kts | 104° |
| 2026-05-07 20:00 | -35.80876 | 158.23480 | 34786 ft | 562 kts | 101° |
| 2026-05-07 20:01 | -35.82332 | 158.32946 | 34789 ft | 562 kts | 101° |
| 2026-05-07 20:01 | -35.83887 | 158.42383 | 34790 ft | 562 kts | 102° |
| 2026-05-07 20:02 | -35.85524 | 158.51818 | 34787 ft | 562 kts | 103° |
| 2026-05-07 20:02 | -35.87139 | 158.61175 | 34776 ft | 562 kts | 102° |
| 2026-05-07 20:03 | -35.88724 | 158.70623 | 34776 ft | 562 kts | 102° |
| 2026-05-07 20:03 | -35.90291 | 158.80070 | 34770 ft | 562 kts | 102° |
| 2026-05-07 20:04 | -35.91845 | 158.89457 | 34769 ft | 561 kts | 102° |
| 2026-05-07 20:04 | -35.93407 | 158.98918 | 34766 ft | 561 kts | 102° |
| 2026-05-07 20:05 | -35.94957 | 159.08363 | 34765 ft | 561 kts | 102° |
| 2026-05-07 20:05 | -35.96502 | 159.17809 | 34757 ft | 561 kts | 102° |
| 2026-05-07 20:06 | -35.98045 | 159.27253 | 34755 ft | 561 kts | 102° |
| 2026-05-07 20:06 | -35.99568 | 159.36634 | 34752 ft | 560 kts | 102° |
| 2026-05-07 20:07 | -36.01084 | 159.46058 | 34742 ft | 559 kts | 102° |
| 2026-05-07 20:07 | -36.02596 | 159.55469 | 34735 ft | 559 kts | 102° |
| 2026-05-07 20:08 | -36.04098 | 159.64894 | 34735 ft | 558 kts | 102° |
| 2026-05-07 20:08 | -36.05590 | 159.74294 | 34727 ft | 557 kts | 102° |
| 2026-05-07 20:09 | -36.07071 | 159.83686 | 34727 ft | 556 kts | 102° |
| 2026-05-07 20:10 | -36.09271 | 159.97761 | 34718 ft | 555 kts | 101° |
| 2026-05-07 20:10 | -36.10718 | 160.07127 | 34713 ft | 555 kts | 101° |
| 2026-05-07 20:11 | -36.12152 | 160.16443 | 34713 ft | 554 kts | 101° |
| 2026-05-07 20:11 | -36.13596 | 160.25795 | 34709 ft | 553 kts | 102° |
| 2026-05-07 20:12 | -36.15038 | 160.35141 | 34702 ft | 553 kts | 101° |
| 2026-05-07 20:12 | -36.16464 | 160.44481 | 34701 ft | 552 kts | 101° |
| 2026-05-07 20:13 | -36.17882 | 160.53827 | 34693 ft | 552 kts | 101° |
| 2026-05-07 20:13 | -36.19281 | 160.63160 | 34681 ft | 551 kts | 101° |
| 2026-05-07 20:14 | -36.20682 | 160.72485 | 34683 ft | 551 kts | 101° |
| 2026-05-07 20:14 | -36.22071 | 160.81823 | 34676 ft | 550 kts | 101° |
| 2026-05-07 20:15 | -36.23435 | 160.91086 | 34681 ft | 550 kts | 101° |
| 2026-05-07 20:15 | -36.24805 | 161.00393 | 34679 ft | 548 kts | 101° |
| 2026-05-07 20:16 | -36.26166 | 161.09683 | 34671 ft | 547 kts | 101° |
| 2026-05-07 20:16 | -36.27522 | 161.18961 | 34662 ft | 547 kts | 101° |
| 2026-05-07 20:17 | -36.28870 | 161.28240 | 34669 ft | 546 kts | 100° |
| 2026-05-07 20:17 | -36.30189 | 161.37430 | 34666 ft | 544 kts | 100° |
| 2026-05-07 20:18 | -36.31505 | 161.46678 | 34662 ft | 544 kts | 100° |
| 2026-05-07 20:18 | -36.32816 | 161.55908 | 34660 ft | 543 kts | 100° |
| 2026-05-07 20:19 | -36.34121 | 161.65129 | 34657 ft | 542 kts | 99° |
| 2026-05-07 20:19 | -36.35422 | 161.74341 | 34657 ft | 542 kts | 99° |
| 2026-05-07 20:20 | -36.36716 | 161.83559 | 34658 ft | 542 kts | 99° |
| 2026-05-07 20:20 | -36.37990 | 161.92718 | 34657 ft | 542 kts | 99° |
| 2026-05-07 20:21 | -36.39267 | 162.01937 | 34649 ft | 541 kts | 99° |
| 2026-05-07 20:21 | -36.40533 | 162.11167 | 34648 ft | 541 kts | 99° |
| 2026-05-07 20:22 | -36.41792 | 162.20387 | 34644 ft | 541 kts | 99° |
| 2026-05-07 20:22 | -36.43041 | 162.29544 | 34648 ft | 540 kts | 98° |
| 2026-05-07 20:23 | -36.44275 | 162.38733 | 34649 ft | 540 kts | 98° |
| 2026-05-07 20:23 | -36.45499 | 162.47923 | 34647 ft | 539 kts | 98° |
| 2026-05-07 20:24 | -36.46733 | 162.57118 | 34646 ft | 539 kts | 98° |
| 2026-05-07 20:24 | -36.47956 | 162.66303 | 34636 ft | 538 kts | 97° |
| 2026-05-07 20:25 | -36.49160 | 162.75476 | 34645 ft | 538 kts | 97° |
| 2026-05-07 20:25 | -36.50360 | 162.84642 | 34643 ft | 537 kts | 97° |
| 2026-05-07 20:26 | -36.51544 | 162.93738 | 34641 ft | 536 kts | 97° |
| 2026-05-07 20:26 | -36.52735 | 163.02889 | 34650 ft | 535 kts | 96° |
| 2026-05-07 20:27 | -36.53908 | 163.12001 | 34659 ft | 533 kts | 96° |
| 2026-05-07 20:27 | -36.55059 | 163.21094 | 34655 ft | 532 kts | 96° |
| 2026-05-07 20:28 | -36.56208 | 163.30172 | 34616 ft | 531 kts | 96° |
| 2026-05-07 20:28 | -36.57352 | 163.39165 | 34643 ft | 529 kts | 95° |
| 2026-05-07 20:29 | -36.58484 | 163.48198 | 34653 ft | 528 kts | 95° |
| 2026-05-07 20:29 | -36.59605 | 163.57216 | 34647 ft | 527 kts | 95° |
| 2026-05-07 20:30 | -36.60716 | 163.66224 | 34627 ft | 526 kts | 94° |
| 2026-05-07 20:30 | -36.61814 | 163.75207 | 34650 ft | 524 kts | 94° |
| 2026-05-07 20:31 | -36.62910 | 163.84178 | 34649 ft | 523 kts | 94° |
| 2026-05-07 20:31 | -36.63990 | 163.93076 | 34648 ft | 522 kts | 94° |
| 2026-05-07 20:32 | -36.65066 | 164.02026 | 34607 ft | 522 kts | 92° |
| 2026-05-07 20:32 | -36.66138 | 164.10954 | 34643 ft | 520 kts | 92° |
| 2026-05-07 20:33 | -36.67200 | 164.19865 | 34651 ft | 519 kts | 92° |
| 2026-05-07 20:33 | -36.68248 | 164.28705 | 34647 ft | 518 kts | 92° |
| 2026-05-07 20:34 | -36.69286 | 164.37586 | 34588 ft | 517 kts | 91° |
| 2026-05-07 20:34 | -36.70315 | 164.46434 | 34636 ft | 515 kts | 91° |
| 2026-05-07 20:35 | -36.71331 | 164.55264 | 34641 ft | 513 kts | 91° |
| 2026-05-07 20:35 | -36.72340 | 164.64068 | 34639 ft | 513 kts | 91° |
| 2026-05-07 20:36 | -36.73178 | 164.71391 | 34595 ft | 512 kts | 91° |
| 2026-05-07 20:36 | -36.74342 | 164.81584 | 34627 ft | 510 kts | 91° |
| 2026-05-07 20:37 | -36.75172 | 164.88922 | 34635 ft | 509 kts | 91° |
| 2026-05-07 20:37 | -36.76148 | 164.97669 | 34638 ft | 509 kts | 91° |
| 2026-05-07 20:38 | -36.77113 | 165.06364 | 34640 ft | 509 kts | 91° |
| 2026-05-07 20:38 | -36.78083 | 165.15088 | 34597 ft | 506 kts | 90° |
| 2026-05-07 20:39 | -36.79040 | 165.23778 | 34622 ft | 505 kts | 90° |
| 2026-05-07 20:39 | -36.79984 | 165.32470 | 34618 ft | 506 kts | 90° |
| 2026-05-07 20:40 | -36.80928 | 165.41205 | 34611 ft | 508 kts | 90° |
| 2026-05-07 20:40 | -36.81863 | 165.49965 | 34619 ft | 510 kts | 90° |
| 2026-05-07 20:41 | -36.82800 | 165.58751 | 34627 ft | 511 kts | 90° |
| 2026-05-07 20:41 | -36.83738 | 165.67503 | 34639 ft | 512 kts | 90° |
| 2026-05-07 20:42 | -36.84671 | 165.76331 | 34638 ft | 512 kts | 90° |
| 2026-05-07 20:42 | -36.85590 | 165.85144 | 34619 ft | 513 kts | 90° |
| 2026-05-07 20:43 | -36.86504 | 165.93979 | 34638 ft | 513 kts | 90° |
| 2026-05-07 20:43 | -36.87411 | 166.02761 | 34647 ft | 513 kts | 90° |
| 2026-05-07 20:44 | -36.88318 | 166.11615 | 34656 ft | 513 kts | 90° |
| 2026-05-07 20:44 | -36.89217 | 166.20467 | 34633 ft | 513 kts | 90° |
| 2026-05-07 20:45 | -36.90109 | 166.29317 | 34663 ft | 513 kts | 90° |
| 2026-05-07 20:45 | -36.90989 | 166.38154 | 34668 ft | 512 kts | 89° |
| 2026-05-07 20:46 | -36.91862 | 166.46936 | 34667 ft | 512 kts | 89° |
| 2026-05-07 20:46 | -36.92732 | 166.55754 | 34639 ft | 510 kts | 89° |
| 2026-05-07 20:47 | -36.93591 | 166.64546 | 34676 ft | 509 kts | 89° |
| 2026-05-07 20:47 | -36.94438 | 166.73321 | 34684 ft | 508 kts | 89° |
| 2026-05-07 20:48 | -36.95279 | 166.82094 | 34691 ft | 507 kts | 89° |
| 2026-05-07 20:48 | -36.96112 | 166.90856 | 34649 ft | 508 kts | 89° |
| 2026-05-07 20:49 | -36.96947 | 166.99631 | 34672 ft | 509 kts | 89° |
| 2026-05-07 20:49 | -36.97771 | 167.08373 | 34683 ft | 509 kts | 89° |
| 2026-05-07 20:50 | -36.98594 | 167.17188 | 34688 ft | 509 kts | 89° |
| 2026-05-07 20:50 | -36.99403 | 167.25989 | 34655 ft | 510 kts | 89° |
| 2026-05-07 20:51 | -37.00201 | 167.34772 | 34661 ft | 512 kts | 89° |
| 2026-05-07 20:51 | -37.01002 | 167.43631 | 34671 ft | 513 kts | 89° |
| 2026-05-07 20:52 | -37.01801 | 167.52521 | 34691 ft | 514 kts | 89° |
| 2026-05-07 20:52 | -37.02608 | 167.61424 | 34669 ft | 515 kts | 89° |
| 2026-05-07 20:53 | -37.03390 | 167.70275 | 34684 ft | 516 kts | 89° |
| 2026-05-07 20:53 | -37.04171 | 167.79205 | 34692 ft | 517 kts | 89° |
| 2026-05-07 20:54 | -37.04955 | 167.88164 | 34717 ft | 517 kts | 89° |
| 2026-05-07 20:54 | -37.05732 | 167.97131 | 34696 ft | 518 kts | 89° |
| 2026-05-07 20:55 | -37.06496 | 168.06033 | 34716 ft | 518 kts | 89° |
| 2026-05-07 20:55 | -37.07261 | 168.15062 | 34740 ft | 518 kts | 89° |
| 2026-05-07 20:56 | -37.08007 | 168.23984 | 34745 ft | 518 kts | 89° |
| 2026-05-07 20:56 | -37.08750 | 168.32956 | 34721 ft | 518 kts | 90° |
| 2026-05-07 20:57 | -37.09495 | 168.41930 | 34746 ft | 518 kts | 89° |
| 2026-05-07 20:57 | -37.10232 | 168.50915 | 34748 ft | 519 kts | 89° |
| 2026-05-07 20:58 | -37.10958 | 168.59921 | 34774 ft | 519 kts | 89° |
| 2026-05-07 20:58 | -37.11675 | 168.68925 | 34774 ft | 519 kts | 89° |
| 2026-05-07 20:59 | -37.12383 | 168.77922 | 34780 ft | 518 kts | 90° |
| 2026-05-07 20:59 | -37.13093 | 168.86910 | 34791 ft | 518 kts | 90° |
| 2026-05-07 21:00 | -37.13794 | 168.95831 | 34793 ft | 517 kts | 89° |
| 2026-05-07 21:00 | -37.14483 | 169.04817 | 34806 ft | 517 kts | 89° |
| 2026-05-07 21:01 | -37.15167 | 169.13792 | 34816 ft | 517 kts | 89° |
| 2026-05-07 21:01 | -37.15842 | 169.22776 | 34814 ft | 517 kts | 89° |
| 2026-05-07 21:02 | -37.16509 | 169.31749 | 34821 ft | 517 kts | 89° |
| 2026-05-07 21:02 | -37.17181 | 169.40721 | 34819 ft | 517 kts | 89° |
| 2026-05-07 21:03 | -37.17838 | 169.49683 | 34806 ft | 517 kts | 89° |
| 2026-05-07 21:03 | -37.18481 | 169.58614 | 34821 ft | 517 kts | 89° |
| 2026-05-07 21:04 | -37.19128 | 169.67606 | 34836 ft | 518 kts | 89° |
| 2026-05-07 21:04 | -37.19762 | 169.76618 | 34840 ft | 518 kts | 89° |
| 2026-05-07 21:05 | -37.20387 | 169.85581 | 34818 ft | 519 kts | 89° |
| 2026-05-07 21:05 | -37.21012 | 169.94612 | 34823 ft | 520 kts | 89° |
| 2026-05-07 21:06 | -37.21635 | 170.03655 | 34843 ft | 521 kts | 89° |
| 2026-05-07 21:06 | -37.22253 | 170.12723 | 34851 ft | 521 kts | 89° |
| 2026-05-07 21:07 | -37.22857 | 170.21791 | 34833 ft | 522 kts | 89° |
| 2026-05-07 21:07 | -37.23459 | 170.30894 | 34839 ft | 524 kts | 89° |
| 2026-05-07 21:08 | -37.24063 | 170.40029 | 34854 ft | 526 kts | 89° |
| 2026-05-07 21:08 | -37.24647 | 170.49172 | 34876 ft | 526 kts | 89° |
| 2026-05-07 21:09 | -37.25224 | 170.58343 | 34869 ft | 527 kts | 89° |
| 2026-05-07 21:09 | -37.25650 | 170.67450 | 34878 ft | 523 kts | 83° |
| 2026-05-07 21:10 | -37.25419 | 170.76563 | 34901 ft | 523 kts | 82° |
| 2026-05-07 21:10 | -37.25159 | 170.85692 | 34907 ft | 523 kts | 82° |
| 2026-05-07 21:11 | -37.24886 | 170.94816 | 34902 ft | 523 kts | 82° |
| 2026-05-07 21:11 | -37.24471 | 171.08517 | 34924 ft | 524 kts | 82° |
| 2026-05-07 21:12 | -37.24192 | 171.17606 | 34929 ft | 524 kts | 82° |
| 2026-05-07 21:12 | -37.23911 | 171.26759 | 34940 ft | 524 kts | 82° |
| 2026-05-07 21:13 | -37.23616 | 171.35906 | 34939 ft | 524 kts | 83° |
| 2026-05-07 21:13 | -37.23304 | 171.45040 | 34946 ft | 524 kts | 82° |
| 2026-05-07 21:14 | -37.22999 | 171.54184 | 34958 ft | 524 kts | 82° |
| 2026-05-07 21:14 | -37.22690 | 171.63267 | 34965 ft | 524 kts | 82° |
| 2026-05-07 21:15 | -37.22365 | 171.72395 | 34964 ft | 523 kts | 83° |
| 2026-05-07 21:15 | -37.22037 | 171.81514 | 34982 ft | 523 kts | 83° |
| 2026-05-07 21:16 | -37.21707 | 171.90628 | 34983 ft | 523 kts | 83° |
| 2026-05-07 21:16 | -37.21365 | 171.99760 | 34995 ft | 523 kts | 83° |
| 2026-05-07 21:17 | -37.21005 | 172.08883 | 34964 ft | 523 kts | 83° |
| 2026-05-07 21:17 | -37.20823 | 172.13444 | 34772 ft | 523 kts | 83° |
| 2026-05-07 21:17 | -37.20647 | 172.17964 | 34391 ft | 514 kts | 83° |
| 2026-05-07 21:18 | -37.20478 | 172.22390 | 34148 ft | 503 kts | 83° |
| 2026-05-07 21:18 | -37.20310 | 172.26704 | 33611 ft | 500 kts | 82° |
| 2026-05-07 21:18 | -37.20134 | 172.31042 | 33067 ft | 496 kts | 82° |
| 2026-05-07 21:18 | -37.19958 | 172.35362 | 32519 ft | 493 kts | 82° |
| 2026-05-07 21:19 | -37.19780 | 172.39634 | 32069 ft | 488 kts | 82° |
| 2026-05-07 21:19 | -37.19602 | 172.43880 | 31505 ft | 486 kts | 82° |
| 2026-05-07 21:19 | -37.19425 | 172.48104 | 30973 ft | 483 kts | 82° |
| 2026-05-07 21:19 | -37.19249 | 172.52295 | 30430 ft | 481 kts | 82° |
| 2026-05-07 21:20 | -37.19073 | 172.56464 | 29981 ft | 476 kts | 82° |
| 2026-05-07 21:20 | -37.18892 | 172.60602 | 29506 ft | 471 kts | 82° |
| 2026-05-07 21:20 | -37.18711 | 172.64681 | 28957 ft | 468 kts | 82° |
| 2026-05-07 21:20 | -37.18533 | 172.68734 | 28576 ft | 461 kts | 82° |
| 2026-05-07 21:21 | -37.18359 | 172.72736 | 28015 ft | 460 kts | 82° |
| 2026-05-07 21:21 | -37.18185 | 172.76701 | 27696 ft | 452 kts | 82° |
| 2026-05-07 21:21 | -37.18016 | 172.80552 | 27037 ft | 444 kts | 82° |
| 2026-05-07 21:21 | -37.17845 | 172.84379 | 26606 ft | 437 kts | 82° |
| 2026-05-07 21:22 | -37.17675 | 172.88177 | 26161 ft | 435 kts | 82° |
| 2026-05-07 21:22 | -37.17500 | 172.91962 | 25689 ft | 434 kts | 82° |
| 2026-05-07 21:22 | -37.17323 | 172.95720 | 25333 ft | 430 kts | 82° |
| 2026-05-07 21:22 | -37.17147 | 172.99467 | 24954 ft | 427 kts | 82° |
| 2026-05-07 21:23 | -37.16973 | 173.03171 | 24627 ft | 422 kts | 82° |
| 2026-05-07 21:23 | -37.16801 | 173.06817 | 23974 ft | 416 kts | 82° |
| 2026-05-07 21:23 | -37.16631 | 173.10414 | 23307 ft | 409 kts | 82° |
| 2026-05-07 21:23 | -37.16467 | 173.13928 | 22782 ft | 397 kts | 82° |
| 2026-05-07 21:24 | -37.16310 | 173.17319 | 22326 ft | 382 kts | 82° |
| 2026-05-07 21:24 | -37.16157 | 173.20594 | 21903 ft | 369 kts | 82° |
| 2026-05-07 21:24 | -37.16009 | 173.23721 | 21480 ft | 358 kts | 82° |
| 2026-05-07 21:24 | -37.15862 | 173.26787 | 21071 ft | 347 kts | 82° |
| 2026-05-07 21:25 | -37.15717 | 173.29763 | 20664 ft | 337 kts | 81° |
| 2026-05-07 21:25 | -37.15569 | 173.32682 | 20281 ft | 336 kts | 81° |
| 2026-05-07 21:25 | -37.15415 | 173.35616 | 19877 ft | 338 kts | 81° |
| 2026-05-07 21:25 | -37.15260 | 173.38559 | 19475 ft | 339 kts | 82° |
| 2026-05-07 21:26 | -37.15108 | 173.41511 | 19073 ft | 340 kts | 82° |
| 2026-05-07 21:26 | -37.14962 | 173.44469 | 18694 ft | 340 kts | 82° |
| 2026-05-07 21:26 | -37.14810 | 173.47425 | 18307 ft | 341 kts | 82° |
| 2026-05-07 21:26 | -37.14639 | 173.50392 | 17876 ft | 340 kts | 81° |
| 2026-05-07 21:27 | -37.14458 | 173.53334 | 17477 ft | 339 kts | 81° |
| 2026-05-07 21:27 | -37.14276 | 173.56276 | 17071 ft | 337 kts | 80° |
| 2026-05-07 21:27 | -37.14100 | 173.59156 | 16695 ft | 335 kts | 80° |
| 2026-05-07 21:27 | -37.13924 | 173.62062 | 16319 ft | 334 kts | 80° |
| 2026-05-07 21:28 | -37.13748 | 173.64957 | 15924 ft | 333 kts | 80° |
| 2026-05-07 21:28 | -37.13572 | 173.67848 | 15536 ft | 331 kts | 80° |
| 2026-05-07 21:28 | -37.13398 | 173.70716 | 15150 ft | 330 kts | 80° |
| 2026-05-07 21:28 | -37.13228 | 173.73581 | 14759 ft | 329 kts | 80° |
| 2026-05-07 21:29 | -37.13055 | 173.76439 | 14381 ft | 328 kts | 80° |
| 2026-05-07 21:29 | -37.12879 | 173.79290 | 13987 ft | 328 kts | 80° |
| 2026-05-07 21:29 | -37.12702 | 173.82135 | 13564 ft | 327 kts | 80° |
| 2026-05-07 21:29 | -37.12528 | 173.84968 | 13165 ft | 325 kts | 80° |
| 2026-05-07 21:30 | -37.12354 | 173.87785 | 12776 ft | 323 kts | 80° |
| 2026-05-07 21:30 | -37.12179 | 173.90592 | 12307 ft | 324 kts | 80° |
| 2026-05-07 21:30 | -37.12062 | 173.92458 | 12020 ft | 324 kts | 80° |
| 2026-05-07 21:30 | -37.11887 | 173.95256 | 11636 ft | 322 kts | 80° |
| 2026-05-07 21:31 | -37.11711 | 173.98048 | 11245 ft | 321 kts | 80° |
| 2026-05-07 21:31 | -37.11533 | 174.00832 | 10847 ft | 320 kts | 80° |
| 2026-05-07 21:31 | -37.11353 | 174.03617 | 10456 ft | 319 kts | 81° |
| 2026-05-07 21:31 | -37.11176 | 174.06367 | 10073 ft | 318 kts | 80° |
| 2026-05-07 21:32 | -37.11002 | 174.09122 | 9790 ft | 313 kts | 81° |
| 2026-05-07 21:32 | -37.10835 | 174.11793 | 9660 ft | 302 kts | 81° |
| 2026-05-07 21:32 | -37.10675 | 174.14370 | 9436 ft | 290 kts | 80° |
| 2026-05-07 21:32 | -37.10520 | 174.16832 | 8933 ft | 284 kts | 80° |
| 2026-05-07 21:33 | -37.10362 | 174.19277 | 8395 ft | 280 kts | 80° |
| 2026-05-07 21:33 | -37.10203 | 174.21692 | 7957 ft | 277 kts | 80° |
| 2026-05-07 21:33 | -37.10045 | 174.24073 | 7702 ft | 273 kts | 79° |
| 2026-05-07 21:33 | -37.09886 | 174.26433 | 7288 ft | 270 kts | 80° |
| 2026-05-07 21:34 | -37.09732 | 174.28761 | 6820 ft | 265 kts | 81° |
| 2026-05-07 21:34 | -37.09584 | 174.31028 | 6464 ft | 256 kts | 80° |
| 2026-05-07 21:34 | -37.09441 | 174.33205 | 6128 ft | 246 kts | 80° |
| 2026-05-07 21:34 | -37.09304 | 174.35303 | 5813 ft | 237 kts | 79° |
| 2026-05-07 21:35 | -37.09167 | 174.37357 | 5517 ft | 237 kts | 79° |
| 2026-05-07 21:35 | -37.09026 | 174.39423 | 5215 ft | 238 kts | 78° |
| 2026-05-07 21:35 | -37.08887 | 174.41479 | 4904 ft | 236 kts | 78° |
| 2026-05-07 21:35 | -37.08750 | 174.43527 | 4596 ft | 234 kts | 78° |
| 2026-05-07 21:36 | -37.08612 | 174.45550 | 4298 ft | 233 kts | 77° |
| 2026-05-07 21:36 | -37.08476 | 174.47557 | 4063 ft | 227 kts | 78° |
| 2026-05-07 21:36 | -37.08349 | 174.49481 | 3990 ft | 217 kts | 77° |
| 2026-05-07 21:36 | -37.08225 | 174.51333 | 3910 ft | 208 kts | 77° |
| 2026-05-07 21:37 | -37.08109 | 174.53090 | 3827 ft | 198 kts | 76° |
| 2026-05-07 21:37 | -37.07812 | 174.54686 | 3745 ft | 180 kts | 62° |
| 2026-05-07 21:37 | -37.07398 | 174.56132 | 3470 ft | 178 kts | 62° |
| 2026-05-07 21:37 | -37.06993 | 174.57581 | 3225 ft | 176 kts | 63° |
| 2026-05-07 21:38 | -37.06602 | 174.59005 | 2999 ft | 170 kts | 62° |
| 2026-05-07 21:38 | -37.06221 | 174.60391 | 2773 ft | 161 kts | 61° |
| 2026-05-07 21:38 | -37.05881 | 174.61643 | 2579 ft | 146 kts | 61° |
| 2026-05-07 21:38 | -37.05555 | 174.62824 | 2380 ft | 142 kts | 61° |
| 2026-05-07 21:39 | -37.05237 | 174.63977 | 2194 ft | 139 kts | 60° |
| 2026-05-07 21:39 | -37.04925 | 174.65110 | 2004 ft | 137 kts | 60° |
| 2026-05-07 21:39 | -37.04612 | 174.66247 | 1824 ft | 139 kts | 62° |
| 2026-05-07 21:39 | -37.04300 | 174.67383 | 1618 ft | 137 kts | 62° |
| 2026-05-07 21:40 | -37.03989 | 174.68514 | 1431 ft | 138 kts | 63° |
| 2026-05-07 21:40 | -37.03679 | 174.69641 | 1249 ft | 137 kts | 63° |
| 2026-05-07 21:40 | -37.03368 | 174.70768 | 1064 ft | 137 kts | 63° |
| 2026-05-07 21:40 | -37.03057 | 174.71893 | 888 ft | 136 kts | 66° |
| 2026-05-07 21:41 | -37.02738 | 174.73019 | 705 ft | 138 kts | 66° |
| 2026-05-07 21:41 | -37.02432 | 174.74172 | 539 ft | 139 kts | 66° |
| 2026-05-07 21:41 | -37.02118 | 174.75301 | 373 ft | 140 kts | 66° |
| 2026-05-07 21:41 | -37.01805 | 174.76453 | 184 ft | 138 kts | 68° |
| 2026-05-07 21:42 | -37.01492 | 174.77572 | 38 ft | 129 kts | 69° |
| 2026-05-07 21:42 | -37.01251 | 174.78456 | 29 ft | 83 kts | 71° |
| 2026-05-07 21:42 | -37.01121 | 174.78929 | 29 ft | 30 kts | 70° |
| 2026-05-07 21:42 | -37.01051 | 174.79168 | 28 ft | 29 kts | 70° |
| 2026-05-07 21:43 | -37.00984 | 174.79405 | 26 ft | 23 kts | 68° |
| 2026-05-07 21:43 | -37.00918 | 174.79559 | 29 ft | 21 kts | 45° |
| 2026-05-07 21:43 | -37.00811 | 174.79694 | 25 ft | 23 kts | 40° |
| 2026-05-07 21:43 | -37.00735 | 174.79708 | 28 ft | 12 kts | 315° |
| 2026-05-07 21:44 | -37.00742 | 174.79602 | 25 ft | 14 kts | 251° |
| 2026-05-07 21:44 | -37.00776 | 174.79478 | 25 ft | 16 kts | 251° |
| 2026-05-07 21:44 | -37.00814 | 174.79340 | 27 ft | 18 kts | 251° |
| 2026-05-07 21:44 | -37.00857 | 174.79186 | 25 ft | 20 kts | 251° |
| 2026-05-07 21:45 | -37.00904 | 174.79014 | 25 ft | 22 kts | 251° |
| 2026-05-07 21:45 | -37.00955 | 174.78827 | 29 ft | 24 kts | 251° |
| 2026-05-07 21:45 | -37.01005 | 174.78648 | 25 ft | 8 kts | 251° |
| 2026-05-07 21:45 | -37.00997 | 174.78579 | 25 ft | 9 kts | 315° |
| 2026-05-07 21:46 | -37.00955 | 174.78512 | 26 ft | 11 kts | 278° |
| 2026-05-07 21:46 | -37.00980 | 174.78419 | 26 ft | 12 kts | 254° |
| 2026-05-07 21:46 | -37.00926 | 174.78358 | 29 ft | 12 kts | 345° |
| 2026-05-07 21:46 | -37.00856 | 174.78304 | 27 ft | 7 kts | 323° |
| 2026-05-07 21:47 | -37.00830 | 174.78280 | 29 ft | 3 kts | 323° |
| 2026-05-07 21:47 | -37.00826 | 174.78276 | 30 ft | 0 kts | 323° |